Flugplatz Ochsenfurt

Für EDGJ sind keine METAR/TAF Berichte vorhanden.
Es werden die Flugwettermeldungen vom Flugplatz Illesheim Air Base in 31 km Entfernung angezeigt.

Bericht für ETIK

vom 31.05. um 10:56 UTC

Wind 6 kt aus 60°

Sichtweite 10 km oder mehr

keine Wolken

Temperatur 17.3°C

Taupunkt 3.6°C

Luftfeuchtigkeit 40%

Luftdruck 1021 hPa

ETIK 311056Z AUTO 06006KT 9999 CLR 17/04 A3015 RMK AO2 SLP215 T01730036 FZRANO
Keine Prognose (TAF) verfügbar.
Impressum